sensor_id;sensor_type;location;lat;lon;timestamp;P1;durP1;ratioP1;P2;durP2;ratioP2
66020;SDS011;52789;59.980;30.346;2022-11-20T00:27:25;4.82;;;3.65;;
66020;SDS011;52789;59.980;30.346;2022-11-20T00:29:54;4.07;;;3.42;;
66020;SDS011;52789;59.980;30.346;2022-11-20T00:40:06;4.07;;;3.67;;
66020;SDS011;52789;59.980;30.346;2022-11-20T01:02:04;3.20;;;2.90;;
66020;SDS011;52789;59.980;30.346;2022-11-20T01:04:33;5.05;;;3.70;;
66020;SDS011;52789;59.980;30.346;2022-11-20T01:06:58;4.30;;;3.40;;
66020;SDS011;52789;59.980;30.346;2022-11-20T01:09:24;4.93;;;4.30;;
66020;SDS011;52789;59.980;30.346;2022-11-20T01:52:56;4.63;;;3.60;;
66020;SDS011;52789;59.980;30.346;2022-11-20T01:55:30;4.50;;;3.95;;
66020;SDS011;52789;59.980;30.346;2022-11-20T01:57:59;4.30;;;3.88;;
66020;SDS011;52789;59.980;30.346;2022-11-20T02:00:28;5.35;;;3.63;;
66020;SDS011;52789;59.980;30.346;2022-11-20T02:02:57;4.28;;;3.75;;
66020;SDS011;52789;59.980;30.346;2022-11-20T02:05:28;4.88;;;3.83;;
66020;SDS011;52789;59.980;30.346;2022-11-20T02:07:54;5.70;;;4.10;;
66020;SDS011;52789;59.980;30.346;2022-11-20T02:10:22;5.13;;;3.67;;
66020;SDS011;52789;59.980;30.346;2022-11-20T02:12:48;6.33;;;3.57;;
66020;SDS011;52789;59.980;30.346;2022-11-20T02:15:32;5.28;;;3.80;;
66020;SDS011;52789;59.980;30.346;2022-11-20T02:17:58;5.30;;;4.03;;
66020;SDS011;52789;59.980;30.346;2022-11-20T02:20:24;4.97;;;4.43;;
66020;SDS011;52789;59.980;30.346;2022-11-20T02:23:00;5.10;;;4.47;;
66020;SDS011;52789;59.980;30.346;2022-11-20T02:25:36;5.07;;;4.22;;
66020;SDS011;52789;59.980;30.346;2022-11-20T02:28:03;4.03;;;3.63;;
66020;SDS011;52789;59.980;30.346;2022-11-20T02:30:30;5.55;;;4.13;;
66020;SDS011;52789;59.980;30.346;2022-11-20T02:32:55;5.13;;;4.10;;
66020;SDS011;52789;59.980;30.346;2022-11-20T02:35:46;6.10;;;4.15;;
66020;SDS011;52789;59.980;30.346;2022-11-20T02:38:13;6.70;;;5.30;;
66020;SDS011;52789;59.980;30.346;2022-11-20T02:40:39;7.50;;;3.88;;
66020;SDS011;52789;59.980;30.346;2022-11-20T02:43:05;6.87;;;4.03;;
66020;SDS011;52789;59.980;30.346;2022-11-20T02:45:30;4.93;;;3.77;;
66020;SDS011;52789;59.980;30.346;2022-11-20T02:47:56;5.63;;;3.72;;
66020;SDS011;52789;59.980;30.346;2022-11-20T02:50:22;4.53;;;4.13;;
66020;SDS011;52789;59.980;30.346;2022-11-20T02:52:48;4.93;;;4.07;;
66020;SDS011;52789;59.980;30.346;2022-11-20T02:55:13;5.73;;;4.00;;
66020;SDS011;52789;59.980;30.346;2022-11-20T02:57:39;4.27;;;3.83;;
66020;SDS011;52789;59.980;30.346;2022-11-20T03:00:04;7.37;;;4.33;;
66020;SDS011;52789;59.980;30.346;2022-11-20T03:02:32;5.70;;;4.40;;
66020;SDS011;52789;59.980;30.346;2022-11-20T03:04:58;4.43;;;3.83;;
66020;SDS011;52789;59.980;30.346;2022-11-20T03:10:11;5.55;;;5.03;;
66020;SDS011;52789;59.980;30.346;2022-11-20T03:12:38;4.10;;;3.60;;
66020;SDS011;52789;59.980;30.346;2022-11-20T03:17:48;5.85;;;3.88;;
66020;SDS011;52789;59.980;30.346;2022-11-20T03:20:13;5.73;;;5.17;;
66020;SDS011;52789;59.980;30.346;2022-11-20T03:22:39;7.13;;;4.90;;
66020;SDS011;52789;59.980;30.346;2022-11-20T03:25:04;5.50;;;3.70;;
66020;SDS011;52789;59.980;30.346;2022-11-20T03:27:34;6.47;;;4.25;;
66020;SDS011;52789;59.980;30.346;2022-11-20T03:30:00;4.47;;;3.85;;
66020;SDS011;52789;59.980;30.346;2022-11-20T03:32:26;6.40;;;4.25;;
66020;SDS011;52789;59.980;30.346;2022-11-20T03:34:51;4.50;;;4.03;;
66020;SDS011;52789;59.980;30.346;2022-11-20T03:37:17;5.00;;;4.00;;
66020;SDS011;52789;59.980;30.346;2022-11-20T03:39:42;5.37;;;3.77;;
66020;SDS011;52789;59.980;30.346;2022-11-20T03:42:08;4.73;;;4.10;;
66020;SDS011;52789;59.980;30.346;2022-11-20T03:44:54;4.88;;;4.05;;
66020;SDS011;52789;59.980;30.346;2022-11-20T03:47:20;5.93;;;3.70;;
66020;SDS011;52789;59.980;30.346;2022-11-20T03:49:46;5.67;;;4.07;;
66020;SDS011;52789;59.980;30.346;2022-11-20T03:55:43;6.07;;;5.03;;
66020;SDS011;52789;59.980;30.346;2022-11-20T04:00:34;5.17;;;4.40;;
66020;SDS011;52789;59.980;30.346;2022-11-20T04:03:02;9.43;;;5.65;;
66020;SDS011;52789;59.980;30.346;2022-11-20T04:05:27;6.63;;;4.77;;
66020;SDS011;52789;59.980;30.346;2022-11-20T04:07:53;6.77;;;4.67;;
66020;SDS011;52789;59.980;30.346;2022-11-20T04:10:19;4.77;;;4.17;;
66020;SDS011;52789;59.980;30.346;2022-11-20T04:12:44;6.57;;;4.50;;
66020;SDS011;52789;59.980;30.346;2022-11-20T04:15:10;6.13;;;4.33;;
66020;SDS011;52789;59.980;30.346;2022-11-20T04:17:36;6.07;;;4.30;;
66020;SDS011;52789;59.980;30.346;2022-11-20T04:20:01;6.57;;;4.73;;
66020;SDS011;52789;59.980;30.346;2022-11-20T04:22:29;5.57;;;4.47;;
66020;SDS011;52789;59.980;30.346;2022-11-20T04:24:54;5.33;;;4.83;;
66020;SDS011;52789;59.980;30.346;2022-11-20T04:27:20;6.37;;;4.00;;
66020;SDS011;52789;59.980;30.346;2022-11-20T04:29:46;8.00;;;5.43;;
66020;SDS011;52789;59.980;30.346;2022-11-20T04:32:11;5.50;;;4.53;;
66020;SDS011;52789;59.980;30.346;2022-11-20T04:34:37;13.83;;;5.50;;
66020;SDS011;52789;59.980;30.346;2022-11-20T04:59:09;8.63;;;4.40;;
66020;SDS011;52789;59.980;30.346;2022-11-20T05:01:35;7.93;;;5.47;;
66020;SDS011;52789;59.980;30.346;2022-11-20T05:04:00;9.83;;;5.50;;
66020;SDS011;52789;59.980;30.346;2022-11-20T05:06:26;9.00;;;5.20;;
66020;SDS011;52789;59.980;30.346;2022-11-20T05:08:51;13.37;;;5.27;;
66020;SDS011;52789;59.980;30.346;2022-11-20T05:11:18;9.70;;;5.57;;
66020;SDS011;52789;59.980;30.346;2022-11-20T05:13:45;4.90;;;4.15;;
66020;SDS011;52789;59.980;30.346;2022-11-20T05:16:12;6.17;;;5.57;;
66020;SDS011;52789;59.980;30.346;2022-11-20T05:18:39;7.25;;;4.15;;
66020;SDS011;52789;59.980;30.346;2022-11-20T05:21:05;8.57;;;4.68;;
66020;SDS011;52789;59.980;30.346;2022-11-20T05:23:31;7.23;;;5.57;;
66020;SDS011;52789;59.980;30.346;2022-11-20T05:25:57;8.98;;;6.57;;
66020;SDS011;52789;59.980;30.346;2022-11-20T05:28:24;9.10;;;5.30;;
66020;SDS011;52789;59.980;30.346;2022-11-20T05:30:53;5.50;;;4.50;;
66020;SDS011;52789;59.980;30.346;2022-11-20T05:33:19;6.50;;;5.35;;
66020;SDS011;52789;59.980;30.346;2022-11-20T05:35:45;5.33;;;4.67;;
66020;SDS011;52789;59.980;30.346;2022-11-20T05:38:11;9.83;;;5.83;;
66020;SDS011;52789;59.980;30.346;2022-11-20T05:40:36;9.27;;;5.00;;
66020;SDS011;52789;59.980;30.346;2022-11-20T05:43:02;8.37;;;5.00;;
66020;SDS011;52789;59.980;30.346;2022-11-20T05:45:28;12.00;;;5.67;;
66020;SDS011;52789;59.980;30.346;2022-11-20T05:47:57;7.40;;;5.00;;
66020;SDS011;52789;59.980;30.346;2022-11-20T05:50:24;6.50;;;4.63;;
66020;SDS011;52789;59.980;30.346;2022-11-20T05:52:49;6.37;;;4.60;;
66020;SDS011;52789;59.980;30.346;2022-11-20T05:55:15;7.53;;;4.67;;
66020;SDS011;52789;59.980;30.346;2022-11-20T05:57:40;6.80;;;5.17;;
66020;SDS011;52789;59.980;30.346;2022-11-20T06:00:07;9.20;;;6.30;;
66020;SDS011;52789;59.980;30.346;2022-11-20T06:02:36;7.32;;;4.97;;
66020;SDS011;52789;59.980;30.346;2022-11-20T06:05:01;8.17;;;5.20;;
66020;SDS011;52789;59.980;30.346;2022-11-20T06:07:29;8.18;;;4.65;;
66020;SDS011;52789;59.980;30.346;2022-11-20T06:09:54;6.67;;;5.67;;
66020;SDS011;52789;59.980;30.346;2022-11-20T06:12:20;7.17;;;4.23;;
66020;SDS011;52789;59.980;30.346;2022-11-20T06:14:45;8.20;;;5.87;;
66020;SDS011;52789;59.980;30.346;2022-11-20T06:17:11;7.53;;;4.87;;
66020;SDS011;52789;59.980;30.346;2022-11-20T06:19:36;6.77;;;4.77;;
66020;SDS011;52789;59.980;30.346;2022-11-20T06:22:02;6.93;;;4.80;;
66020;SDS011;52789;59.980;30.346;2022-11-20T06:24:27;6.10;;;4.67;;
66020;SDS011;52789;59.980;30.346;2022-11-20T06:26:53;6.33;;;5.10;;
66020;SDS011;52789;59.980;30.346;2022-11-20T06:29:18;6.40;;;4.67;;
66020;SDS011;52789;59.980;30.346;2022-11-20T06:31:44;10.87;;;4.87;;
66020;SDS011;52789;59.980;30.346;2022-11-20T06:34:09;8.00;;;5.10;;
66020;SDS011;52789;59.980;30.346;2022-11-20T06:36:35;7.40;;;6.20;;
66020;SDS011;52789;59.980;30.346;2022-11-20T06:39:01;7.90;;;5.23;;
66020;SDS011;52789;59.980;30.346;2022-11-20T06:41:27;5.97;;;4.63;;
66020;SDS011;52789;59.980;30.346;2022-11-20T06:43:53;7.27;;;5.60;;
66020;SDS011;52789;59.980;30.346;2022-11-20T06:46:19;8.45;;;4.43;;
66020;SDS011;52789;59.980;30.346;2022-11-20T06:48:46;7.43;;;5.13;;
66020;SDS011;52789;59.980;30.346;2022-11-20T06:51:12;6.50;;;5.32;;
66020;SDS011;52789;59.980;30.346;2022-11-20T06:53:38;7.73;;;5.37;;
66020;SDS011;52789;59.980;30.346;2022-11-20T06:56:04;6.40;;;4.80;;
66020;SDS011;52789;59.980;30.346;2022-11-20T06:58:31;9.45;;;5.85;;
66020;SDS011;52789;59.980;30.346;2022-11-20T07:01:23;8.10;;;5.22;;
66020;SDS011;52789;59.980;30.346;2022-11-20T07:03:49;12.00;;;4.73;;
66020;SDS011;52789;59.980;30.346;2022-11-20T07:06:16;5.88;;;5.25;;
66020;SDS011;52789;59.980;30.346;2022-11-20T07:08:41;7.97;;;5.63;;
66020;SDS011;52789;59.980;30.346;2022-11-20T07:11:07;7.30;;;5.20;;
66020;SDS011;52789;59.980;30.346;2022-11-20T07:13:33;7.88;;;4.78;;
66020;SDS011;52789;59.980;30.346;2022-11-20T07:16:08;6.27;;;5.13;;
66020;SDS011;52789;59.980;30.346;2022-11-20T07:18:34;7.47;;;5.47;;
66020;SDS011;52789;59.980;30.346;2022-11-20T07:21:04;8.57;;;6.28;;
66020;SDS011;52789;59.980;30.346;2022-11-20T07:23:38;5.47;;;4.78;;
66020;SDS011;52789;59.980;30.346;2022-11-20T07:26:08;8.80;;;5.63;;
66020;SDS011;52789;59.980;30.346;2022-11-20T07:28:35;10.25;;;6.22;;
66020;SDS011;52789;59.980;30.346;2022-11-20T07:31:01;10.38;;;5.90;;
66020;SDS011;52789;59.980;30.346;2022-11-20T07:33:27;6.00;;;4.95;;
66020;SDS011;52789;59.980;30.346;2022-11-20T07:35:53;8.13;;;6.23;;
66020;SDS011;52789;59.980;30.346;2022-11-20T07:38:18;8.10;;;4.83;;
66020;SDS011;52789;59.980;30.346;2022-11-20T07:40:44;7.97;;;5.07;;
66020;SDS011;52789;59.980;30.346;2022-11-20T07:43:09;9.73;;;6.77;;
66020;SDS011;52789;59.980;30.346;2022-11-20T07:45:41;12.55;;;6.05;;
66020;SDS011;52789;59.980;30.346;2022-11-20T07:48:23;6.95;;;5.65;;
66020;SDS011;52789;59.980;30.346;2022-11-20T07:50:49;5.65;;;4.93;;
66020;SDS011;52789;59.980;30.346;2022-11-20T07:56:55;7.68;;;5.05;;
66020;SDS011;52789;59.980;30.346;2022-11-20T07:59:21;7.53;;;5.97;;
66020;SDS011;52789;59.980;30.346;2022-11-20T08:01:53;6.47;;;5.18;;
66020;SDS011;52789;59.980;30.346;2022-11-20T08:04:20;7.30;;;6.03;;
66020;SDS011;52789;59.980;30.346;2022-11-20T08:06:48;8.88;;;6.60;;
66020;SDS011;52789;59.980;30.346;2022-11-20T08:09:14;10.17;;;5.67;;
66020;SDS011;52789;59.980;30.346;2022-11-20T08:11:40;10.07;;;5.70;;
66020;SDS011;52789;59.980;30.346;2022-11-20T08:14:27;8.57;;;5.10;;
66020;SDS011;52789;59.980;30.346;2022-11-20T08:16:53;8.97;;;5.97;;
66020;SDS011;52789;59.980;30.346;2022-11-20T08:19:18;8.45;;;5.68;;
66020;SDS011;52789;59.980;30.346;2022-11-20T08:21:44;6.43;;;5.20;;
66020;SDS011;52789;59.980;30.346;2022-11-20T08:24:10;10.60;;;6.43;;
66020;SDS011;52789;59.980;30.346;2022-11-20T08:26:36;10.40;;;6.22;;
66020;SDS011;52789;59.980;30.346;2022-11-20T08:29:03;9.10;;;6.95;;
66020;SDS011;52789;59.980;30.346;2022-11-20T08:31:29;8.38;;;6.70;;
66020;SDS011;52789;59.980;30.346;2022-11-20T08:33:55;10.57;;;6.90;;
66020;SDS011;52789;59.980;30.346;2022-11-20T08:39:30;10.52;;;6.57;;
66020;SDS011;52789;59.980;30.346;2022-11-20T08:41:56;10.27;;;7.23;;
66020;SDS011;52789;59.980;30.346;2022-11-20T08:44:21;9.37;;;7.00;;
66020;SDS011;52789;59.980;30.346;2022-11-20T08:46:47;7.73;;;6.47;;
66020;SDS011;52789;59.980;30.346;2022-11-20T08:49:13;15.77;;;7.83;;
66020;SDS011;52789;59.980;30.346;2022-11-20T08:51:39;14.52;;;8.32;;
66020;SDS011;52789;59.980;30.346;2022-11-20T08:54:05;9.45;;;6.57;;
66020;SDS011;52789;59.980;30.346;2022-11-20T08:56:32;12.45;;;7.95;;
66020;SDS011;52789;59.980;30.346;2022-11-20T08:58:59;13.75;;;8.50;;
66020;SDS011;52789;59.980;30.346;2022-11-20T09:01:25;11.37;;;8.43;;
66020;SDS011;52789;59.980;30.346;2022-11-20T09:03:52;9.45;;;7.28;;
66020;SDS011;52789;59.980;30.346;2022-11-20T09:06:20;10.50;;;7.38;;
66020;SDS011;52789;59.980;30.346;2022-11-20T09:08:46;8.23;;;6.77;;
66020;SDS011;52789;59.980;30.346;2022-11-20T09:11:11;9.20;;;7.30;;
66020;SDS011;52789;59.980;30.346;2022-11-20T09:13:37;9.47;;;6.93;;
66020;SDS011;52789;59.980;30.346;2022-11-20T09:16:05;9.17;;;6.63;;
66020;SDS011;52789;59.980;30.346;2022-11-20T09:18:33;12.35;;;7.40;;
66020;SDS011;52789;59.980;30.346;2022-11-20T09:21:09;11.32;;;6.90;;
66020;SDS011;52789;59.980;30.346;2022-11-20T09:23:36;12.07;;;7.55;;
66020;SDS011;52789;59.980;30.346;2022-11-20T09:26:12;9.50;;;6.90;;
66020;SDS011;52789;59.980;30.346;2022-11-20T09:28:39;15.40;;;6.68;;
66020;SDS011;52789;59.980;30.346;2022-11-20T09:31:08;12.32;;;7.43;;
66020;SDS011;52789;59.980;30.346;2022-11-20T09:33:42;9.93;;;6.95;;
66020;SDS011;52789;59.980;30.346;2022-11-20T09:36:08;10.30;;;6.40;;
66020;SDS011;52789;59.980;30.346;2022-11-20T09:38:33;7.90;;;6.73;;
66020;SDS011;52789;59.980;30.346;2022-11-20T09:41:03;10.57;;;7.20;;
66020;SDS011;52789;59.980;30.346;2022-11-20T09:46:19;13.63;;;6.38;;
66020;SDS011;52789;59.980;30.346;2022-11-20T09:56:59;10.35;;;6.05;;
66020;SDS011;52789;59.980;30.346;2022-11-20T10:07:41;10.88;;;7.55;;
66020;SDS011;52789;59.980;30.346;2022-11-20T10:22:15;9.77;;;6.50;;
66020;SDS011;52789;59.980;30.346;2022-11-20T10:24:57;10.25;;;6.93;;
66020;SDS011;52789;59.980;30.346;2022-11-20T10:27:30;10.77;;;7.30;;
66020;SDS011;52789;59.980;30.346;2022-11-20T10:30:24;12.25;;;7.78;;
66020;SDS011;52789;59.980;30.346;2022-11-20T10:32:59;10.83;;;6.67;;
66020;SDS011;52789;59.980;30.346;2022-11-20T10:35:34;9.90;;;6.85;;
66020;SDS011;52789;59.980;30.346;2022-11-20T10:38:07;13.80;;;7.40;;
66020;SDS011;52789;59.980;30.346;2022-11-20T10:41:03;12.73;;;7.22;;
66020;SDS011;52789;59.980;30.346;2022-11-20T10:43:49;8.90;;;6.22;;
66020;SDS011;52789;59.980;30.346;2022-11-20T10:46:22;11.23;;;6.38;;
66020;SDS011;52789;59.980;30.346;2022-11-20T10:48:48;15.30;;;8.52;;
66020;SDS011;52789;59.980;30.346;2022-11-20T11:01:46;7.55;;;6.25;;
66020;SDS011;52789;59.980;30.346;2022-11-20T11:04:18;14.73;;;8.90;;
66020;SDS011;52789;59.980;30.346;2022-11-20T11:07:14;11.27;;;7.72;;
66020;SDS011;52789;59.980;30.346;2022-11-20T11:09:42;10.27;;;6.43;;
66020;SDS011;52789;59.980;30.346;2022-11-20T11:12:11;7.25;;;5.70;;
66020;SDS011;52789;59.980;30.346;2022-11-20T11:15:11;9.10;;;6.33;;
66020;SDS011;52789;59.980;30.346;2022-11-20T11:17:33;8.90;;;6.95;;
66020;SDS011;52789;59.980;30.346;2022-11-20T11:22:45;11.63;;;7.70;;
66020;SDS011;52789;59.980;30.346;2022-11-20T11:25:19;12.38;;;6.78;;
66020;SDS011;52789;59.980;30.346;2022-11-20T11:27:48;10.82;;;7.30;;
66020;SDS011;52789;59.980;30.346;2022-11-20T11:30:16;13.40;;;7.57;;
66020;SDS011;52789;59.980;30.346;2022-11-20T11:32:43;13.10;;;7.20;;
66020;SDS011;52789;59.980;30.346;2022-11-20T11:35:27;9.63;;;6.77;;
66020;SDS011;52789;59.980;30.346;2022-11-20T11:38:06;8.75;;;6.38;;
66020;SDS011;52789;59.980;30.346;2022-11-20T11:40:37;10.30;;;6.72;;
66020;SDS011;52789;59.980;30.346;2022-11-20T11:43:05;11.63;;;6.70;;
66020;SDS011;52789;59.980;30.346;2022-11-20T11:46:01;12.15;;;5.95;;
66020;SDS011;52789;59.980;30.346;2022-11-20T11:48:29;9.57;;;6.47;;
66020;SDS011;52789;59.980;30.346;2022-11-20T11:50:55;12.63;;;6.67;;
66020;SDS011;52789;59.980;30.346;2022-11-20T11:53:21;11.07;;;6.97;;
66020;SDS011;52789;59.980;30.346;2022-11-20T12:08:36;9.77;;;6.20;;
66020;SDS011;52789;59.980;30.346;2022-11-20T12:14:00;11.10;;;7.57;;
66020;SDS011;52789;59.980;30.346;2022-11-20T12:16:34;11.43;;;6.55;;
66020;SDS011;52789;59.980;30.346;2022-11-20T12:30:35;9.05;;;6.07;;
66020;SDS011;52789;59.980;30.346;2022-11-20T12:36:28;10.38;;;6.00;;
66020;SDS011;52789;59.980;30.346;2022-11-20T13:08:30;12.13;;;6.93;;
66020;SDS011;52789;59.980;30.346;2022-11-20T13:22:02;11.35;;;7.88;;
66020;SDS011;52789;59.980;30.346;2022-11-20T13:24:29;10.43;;;8.00;;
66020;SDS011;52789;59.980;30.346;2022-11-20T13:27:03;11.55;;;7.68;;
66020;SDS011;52789;59.980;30.346;2022-11-20T13:29:38;10.55;;;7.35;;
66020;SDS011;52789;59.980;30.346;2022-11-20T13:34:52;8.80;;;7.45;;
66020;SDS011;52789;59.980;30.346;2022-11-20T13:40:59;16.20;;;8.65;;
66020;SDS011;52789;59.980;30.346;2022-11-20T13:43:49;14.13;;;7.57;;
66020;SDS011;52789;59.980;30.346;2022-11-20T13:49:14;9.57;;;6.70;;
66020;SDS011;52789;59.980;30.346;2022-11-20T14:00:44;12.68;;;7.85;;
66020;SDS011;52789;59.980;30.346;2022-11-20T14:03:22;14.55;;;7.88;;
66020;SDS011;52789;59.980;30.346;2022-11-20T14:05:52;14.57;;;7.72;;
66020;SDS011;52789;59.980;30.346;2022-11-20T14:11:45;17.50;;;10.35;;
66020;SDS011;52789;59.980;30.346;2022-11-20T14:16:43;13.13;;;8.25;;
66020;SDS011;52789;59.980;30.346;2022-11-20T14:21:53;14.43;;;8.68;;
66020;SDS011;52789;59.980;30.346;2022-11-20T14:24:31;14.55;;;8.05;;
66020;SDS011;52789;59.980;30.346;2022-11-20T14:26:56;13.30;;;8.50;;
66020;SDS011;52789;59.980;30.346;2022-11-20T14:29:23;12.63;;;7.33;;
66020;SDS011;52789;59.980;30.346;2022-11-20T14:31:54;11.30;;;7.65;;
66020;SDS011;52789;59.980;30.346;2022-11-20T14:34:24;14.95;;;8.60;;
66020;SDS011;52789;59.980;30.346;2022-11-20T14:36:52;12.65;;;7.95;;
66020;SDS011;52789;59.980;30.346;2022-11-20T14:39:22;12.73;;;7.90;;
66020;SDS011;52789;59.980;30.346;2022-11-20T14:41:54;14.57;;;8.65;;
66020;SDS011;52789;59.980;30.346;2022-11-20T14:44:21;11.67;;;8.03;;
66020;SDS011;52789;59.980;30.346;2022-11-20T14:47:08;15.07;;;8.68;;
66020;SDS011;52789;59.980;30.346;2022-11-20T14:49:37;11.23;;;8.15;;
66020;SDS011;52789;59.980;30.346;2022-11-20T14:52:23;13.48;;;8.52;;
66020;SDS011;52789;59.980;30.346;2022-11-20T14:54:51;9.82;;;7.20;;
66020;SDS011;52789;59.980;30.346;2022-11-20T14:57:32;13.07;;;8.98;;
66020;SDS011;52789;59.980;30.346;2022-11-20T15:02:44;8.90;;;6.95;;
66020;SDS011;52789;59.980;30.346;2022-11-20T15:05:11;11.32;;;7.40;;
66020;SDS011;52789;59.980;30.346;2022-11-20T15:07:39;9.17;;;7.07;;
66020;SDS011;52789;59.980;30.346;2022-11-20T15:12:54;11.85;;;7.53;;
66020;SDS011;52789;59.980;30.346;2022-11-20T15:17:56;10.70;;;7.63;;
66020;SDS011;52789;59.980;30.346;2022-11-20T15:20:24;16.20;;;10.13;;
66020;SDS011;52789;59.980;30.346;2022-11-20T15:22:52;12.63;;;7.15;;
66020;SDS011;52789;59.980;30.346;2022-11-20T15:25:18;10.57;;;6.40;;
66020;SDS011;52789;59.980;30.346;2022-11-20T15:27:44;10.87;;;6.90;;
66020;SDS011;52789;59.980;30.346;2022-11-20T15:30:19;9.90;;;6.38;;
66020;SDS011;52789;59.980;30.346;2022-11-20T15:32:46;14.15;;;8.82;;
66020;SDS011;52789;59.980;30.346;2022-11-20T15:35:12;11.40;;;7.57;;
66020;SDS011;52789;59.980;30.346;2022-11-20T15:37:39;14.35;;;10.48;;
66020;SDS011;52789;59.980;30.346;2022-11-20T15:40:06;9.68;;;6.97;;
66020;SDS011;52789;59.980;30.346;2022-11-20T15:42:32;12.35;;;7.45;;
66020;SDS011;52789;59.980;30.346;2022-11-20T15:44:58;9.43;;;6.68;;
66020;SDS011;52789;59.980;30.346;2022-11-20T15:47:33;9.97;;;6.53;;
66020;SDS011;52789;59.980;30.346;2022-11-20T15:50:00;9.68;;;6.75;;
66020;SDS011;52789;59.980;30.346;2022-11-20T15:52:28;12.48;;;7.80;;
66020;SDS011;52789;59.980;30.346;2022-11-20T15:54:54;10.30;;;8.13;;
66020;SDS011;52789;59.980;30.346;2022-11-20T15:57:19;11.30;;;7.50;;
66020;SDS011;52789;59.980;30.346;2022-11-20T15:59:45;13.53;;;7.87;;
66020;SDS011;52789;59.980;30.346;2022-11-20T16:02:11;10.90;;;7.60;;
66020;SDS011;52789;59.980;30.346;2022-11-20T16:04:37;12.40;;;8.30;;
66020;SDS011;52789;59.980;30.346;2022-11-20T16:07:05;11.57;;;7.03;;
66020;SDS011;52789;59.980;30.346;2022-11-20T16:09:32;13.05;;;7.22;;
66020;SDS011;52789;59.980;30.346;2022-11-20T16:11:58;14.00;;;7.73;;
66020;SDS011;52789;59.980;30.346;2022-11-20T16:14:26;15.63;;;7.47;;
66020;SDS011;52789;59.980;30.346;2022-11-20T16:17:10;9.68;;;6.93;;
66020;SDS011;52789;59.980;30.346;2022-11-20T16:19:37;11.10;;;7.82;;
66020;SDS011;52789;59.980;30.346;2022-11-20T16:22:02;12.53;;;8.87;;
66020;SDS011;52789;59.980;30.346;2022-11-20T16:24:28;14.93;;;7.07;;
66020;SDS011;52789;59.980;30.346;2022-11-20T16:26:54;13.87;;;7.73;;
66020;SDS011;52789;59.980;30.346;2022-11-20T16:29:20;13.03;;;8.27;;
66020;SDS011;52789;59.980;30.346;2022-11-20T16:31:46;18.23;;;12.23;;
66020;SDS011;52789;59.980;30.346;2022-11-20T16:34:11;14.40;;;9.00;;
66020;SDS011;52789;59.980;30.346;2022-11-20T16:36:39;12.80;;;8.40;;
66020;SDS011;52789;59.980;30.346;2022-11-20T16:41:32;16.60;;;8.37;;
66020;SDS011;52789;59.980;30.346;2022-11-20T16:43:59;13.93;;;9.15;;
66020;SDS011;52789;59.980;30.346;2022-11-20T16:46:27;15.40;;;8.98;;
66020;SDS011;52789;59.980;30.346;2022-11-20T16:48:58;15.80;;;9.10;;
66020;SDS011;52789;59.980;30.346;2022-11-20T16:51:25;17.23;;;8.55;;
66020;SDS011;52789;59.980;30.346;2022-11-20T16:53:52;15.85;;;10.35;;
66020;SDS011;52789;59.980;30.346;2022-11-20T16:56:23;15.77;;;9.57;;
66020;SDS011;52789;59.980;30.346;2022-11-20T16:58:50;15.50;;;9.38;;
66020;SDS011;52789;59.980;30.346;2022-11-20T17:01:19;13.20;;;9.00;;
66020;SDS011;52789;59.980;30.346;2022-11-20T17:03:46;18.77;;;9.73;;
66020;SDS011;52789;59.980;30.346;2022-11-20T17:06:20;14.93;;;8.48;;
66020;SDS011;52789;59.980;30.346;2022-11-20T17:08:50;14.57;;;9.85;;
66020;SDS011;52789;59.980;30.346;2022-11-20T17:11:16;15.30;;;9.80;;
66020;SDS011;52789;59.980;30.346;2022-11-20T17:13:43;19.80;;;10.70;;
66020;SDS011;52789;59.980;30.346;2022-11-20T17:16:12;17.17;;;11.10;;
66020;SDS011;52789;59.980;30.346;2022-11-20T17:18:43;14.88;;;11.43;;
66020;SDS011;52789;59.980;30.346;2022-11-20T17:21:09;13.57;;;9.60;;
66020;SDS011;52789;59.980;30.346;2022-11-20T17:23:39;13.20;;;8.38;;
66020;SDS011;52789;59.980;30.346;2022-11-20T17:28:36;12.48;;;9.55;;
66020;SDS011;52789;59.980;30.346;2022-11-20T17:31:06;16.65;;;9.65;;
66020;SDS011;52789;59.980;30.346;2022-11-20T17:33:34;15.10;;;9.52;;
66020;SDS011;52789;59.980;30.346;2022-11-20T17:36:01;17.33;;;10.57;;
66020;SDS011;52789;59.980;30.346;2022-11-20T17:38:28;16.02;;;8.70;;
66020;SDS011;52789;59.980;30.346;2022-11-20T17:41:00;13.03;;;9.13;;
66020;SDS011;52789;59.980;30.346;2022-11-20T17:43:31;14.15;;;8.95;;
66020;SDS011;52789;59.980;30.346;2022-11-20T17:45:57;10.27;;;7.87;;
66020;SDS011;52789;59.980;30.346;2022-11-20T17:48:23;16.75;;;9.63;;
66020;SDS011;52789;59.980;30.346;2022-11-20T17:50:49;13.63;;;8.70;;
66020;SDS011;52789;59.980;30.346;2022-11-20T17:53:14;12.70;;;9.17;;
66020;SDS011;52789;59.980;30.346;2022-11-20T17:55:40;18.63;;;8.87;;
66020;SDS011;52789;59.980;30.346;2022-11-20T17:58:27;13.60;;;9.43;;
66020;SDS011;52789;59.980;30.346;2022-11-20T18:00:52;15.65;;;9.02;;
66020;SDS011;52789;59.980;30.346;2022-11-20T18:03:18;14.63;;;8.97;;
66020;SDS011;52789;59.980;30.346;2022-11-20T18:05:44;11.43;;;8.77;;
66020;SDS011;52789;59.980;30.346;2022-11-20T18:08:11;14.63;;;9.50;;
66020;SDS011;52789;59.980;30.346;2022-11-20T18:10:36;14.77;;;9.38;;
66020;SDS011;52789;59.980;30.346;2022-11-20T18:13:02;20.50;;;8.80;;
66020;SDS011;52789;59.980;30.346;2022-11-20T18:15:28;10.80;;;9.20;;
66020;SDS011;52789;59.980;30.346;2022-11-20T18:17:55;15.93;;;10.32;;
66020;SDS011;52789;59.980;30.346;2022-11-20T18:20:26;16.92;;;10.02;;
66020;SDS011;52789;59.980;30.346;2022-11-20T18:22:51;15.15;;;10.40;;
66020;SDS011;52789;59.980;30.346;2022-11-20T18:25:17;17.33;;;10.87;;
66020;SDS011;52789;59.980;30.346;2022-11-20T18:27:47;18.15;;;12.25;;
66020;SDS011;52789;59.980;30.346;2022-11-20T18:30:14;17.80;;;12.15;;
66020;SDS011;52789;59.980;30.346;2022-11-20T18:32:39;15.33;;;11.63;;
66020;SDS011;52789;59.980;30.346;2022-11-20T18:35:05;16.60;;;10.17;;
66020;SDS011;52789;59.980;30.346;2022-11-20T18:37:33;14.07;;;9.98;;
66020;SDS011;52789;59.980;30.346;2022-11-20T18:39:58;19.83;;;12.00;;
66020;SDS011;52789;59.980;30.346;2022-11-20T18:42:24;16.73;;;9.67;;
66020;SDS011;52789;59.980;30.346;2022-11-20T19:13:38;7.45;;;6.18;;
66020;SDS011;52789;59.980;30.346;2022-11-20T19:16:19;8.68;;;6.00;;
66020;SDS011;52789;59.980;30.346;2022-11-20T19:19:00;10.25;;;7.88;;
66020;SDS011;52789;59.980;30.346;2022-11-20T19:21:27;10.98;;;7.50;;
66020;SDS011;52789;59.980;30.346;2022-11-20T19:24:01;7.60;;;6.38;;
66020;SDS011;52789;59.980;30.346;2022-11-20T19:26:28;6.55;;;5.47;;
66020;SDS011;52789;59.980;30.346;2022-11-20T19:29:10;6.93;;;5.53;;
66020;SDS011;52789;59.980;30.346;2022-11-20T19:31:52;7.78;;;5.78;;
66020;SDS011;52789;59.980;30.346;2022-11-20T19:35:02;8.98;;;5.90;;
66020;SDS011;52789;59.980;30.346;2022-11-20T19:44:10;9.45;;;7.10;;
66020;SDS011;52789;59.980;30.346;2022-11-20T19:46:47;7.57;;;5.97;;
66020;SDS011;52789;59.980;30.346;2022-11-20T19:49:14;15.45;;;10.23;;
66020;SDS011;52789;59.980;30.346;2022-11-20T19:51:44;6.87;;;6.03;;
66020;SDS011;52789;59.980;30.346;2022-11-20T19:54:12;5.97;;;4.57;;
66020;SDS011;52789;59.980;30.346;2022-11-20T19:56:37;5.70;;;5.00;;
66020;SDS011;52789;59.980;30.346;2022-11-20T19:59:03;6.77;;;4.67;;
66020;SDS011;52789;59.980;30.346;2022-11-20T20:01:29;5.13;;;4.53;;
66020;SDS011;52789;59.980;30.346;2022-11-20T20:04:01;4.78;;;4.28;;